sensor_id;sensor_type;location;lat;lon;timestamp;P1;P2;P0
50866;PMS7003;36839;51.946;21.002;2022-07-04T00:01:04;4.20;4.00;3.20
50866;PMS7003;36839;51.946;21.002;2022-07-04T00:03:30;8.40;6.60;5.00
50866;PMS7003;36839;51.946;21.002;2022-07-04T00:05:57;5.00;5.00;4.40
50866;PMS7003;36839;51.946;21.002;2022-07-04T00:08:23;4.00;4.00;4.00
50866;PMS7003;36839;51.946;21.002;2022-07-04T00:10:49;4.80;4.80;4.00
50866;PMS7003;36839;51.946;21.002;2022-07-04T00:13:16;5.20;5.20;4.20
50866;PMS7003;36839;51.946;21.002;2022-07-04T00:15:42;4.00;4.00;3.80
50866;PMS7003;36839;51.946;21.002;2022-07-04T00:18:08;4.00;4.00;4.00
50866;PMS7003;36839;51.946;21.002;2022-07-04T00:20:34;3.40;3.40;3.00
50866;PMS7003;36839;51.946;21.002;2022-07-04T00:23:01;5.40;5.40;4.40
50866;PMS7003;36839;51.946;21.002;2022-07-04T00:25:27;4.00;4.00;3.20
50866;PMS7003;36839;51.946;21.002;2022-07-04T00:27:54;5.00;5.00;4.00
50866;PMS7003;36839;51.946;21.002;2022-07-04T00:30:20;4.80;4.80;4.00
50866;PMS7003;36839;51.946;21.002;2022-07-04T00:32:47;5.00;5.00;4.00
50866;PMS7003;36839;51.946;21.002;2022-07-04T00:35:13;5.80;4.20;3.60
50866;PMS7003;36839;51.946;21.002;2022-07-04T00:37:39;5.80;5.80;4.60
50866;PMS7003;36839;51.946;21.002;2022-07-04T00:40:06;10.80;7.40;6.20
50866;PMS7003;36839;51.946;21.002;2022-07-04T00:42:33;8.40;8.40;6.20
50866;PMS7003;36839;51.946;21.002;2022-07-04T00:44:59;12.40;8.40;6.00
50866;PMS7003;36839;51.946;21.002;2022-07-04T00:47:25;5.00;5.00;4.00
50866;PMS7003;36839;51.946;21.002;2022-07-04T00:49:52;9.60;5.40;4.00
50866;PMS7003;36839;51.946;21.002;2022-07-04T00:52:18;5.40;5.40;5.20
50866;PMS7003;36839;51.946;21.002;2022-07-04T00:54:46;5.20;5.20;4.40
50866;PMS7003;36839;51.946;21.002;2022-07-04T00:57:13;5.20;4.00;3.80
50866;PMS7003;36839;51.946;21.002;2022-07-04T00:59:39;4.00;4.00;4.00
50866;PMS7003;36839;51.946;21.002;2022-07-04T01:02:05;4.00;4.00;3.40
50866;PMS7003;36839;51.946;21.002;2022-07-04T01:04:33;5.00;5.00;4.00
50866;PMS7003;36839;51.946;21.002;2022-07-04T01:07:00;6.60;6.60;4.20
50866;PMS7003;36839;51.946;21.002;2022-07-04T01:09:28;4.40;3.40;3.40
50866;PMS7003;36839;51.946;21.002;2022-07-04T01:11:54;4.00;4.00;3.40
50866;PMS7003;36839;51.946;21.002;2022-07-04T01:14:20;7.60;4.40;3.60
50866;PMS7003;36839;51.946;21.002;2022-07-04T01:16:46;6.60;5.60;4.20
50866;PMS7003;36839;51.946;21.002;2022-07-04T01:19:13;6.80;5.60;4.20
50866;PMS7003;36839;51.946;21.002;2022-07-04T01:21:39;7.60;5.20;4.00
50866;PMS7003;36839;51.946;21.002;2022-07-04T01:24:05;4.40;4.20;4.00
50866;PMS7003;36839;51.946;21.002;2022-07-04T01:26:32;4.40;4.40;3.80
50866;PMS7003;36839;51.946;21.002;2022-07-04T01:28:58;6.40;6.40;5.00
50866;PMS7003;36839;51.946;21.002;2022-07-04T01:31:24;6.80;4.60;3.00
50866;PMS7003;36839;51.946;21.002;2022-07-04T01:33:52;8.00;7.00;5.40
50866;PMS7003;36839;51.946;21.002;2022-07-04T01:36:18;5.40;5.40;4.60
50866;PMS7003;36839;51.946;21.002;2022-07-04T01:38:45;4.80;4.80;4.00
50866;PMS7003;36839;51.946;21.002;2022-07-04T01:41:11;5.20;5.20;4.00
50866;PMS7003;36839;51.946;21.002;2022-07-04T01:43:37;6.80;5.00;5.00
50866;PMS7003;36839;51.946;21.002;2022-07-04T01:46:04;6.00;4.60;3.80
50866;PMS7003;36839;51.946;21.002;2022-07-04T01:48:30;5.20;5.20;4.60
50866;PMS7003;36839;51.946;21.002;2022-07-04T01:50:56;4.40;4.40;4.00
50866;PMS7003;36839;51.946;21.002;2022-07-04T01:53:22;4.00;4.00;3.00
50866;PMS7003;36839;51.946;21.002;2022-07-04T01:55:49;4.80;4.80;4.00
50866;PMS7003;36839;51.946;21.002;2022-07-04T01:58:15;7.60;7.40;5.20
50866;PMS7003;36839;51.946;21.002;2022-07-04T02:00:41;4.00;4.00;4.00
50866;PMS7003;36839;51.946;21.002;2022-07-04T02:03:26;4.20;4.20;4.00
50866;PMS7003;36839;51.946;21.002;2022-07-04T02:05:52;5.20;5.20;4.00
50866;PMS7003;36839;51.946;21.002;2022-07-04T02:08:19;4.40;4.40;3.60
50866;PMS7003;36839;51.946;21.002;2022-07-04T02:10:45;4.20;4.20;3.60
50866;PMS7003;36839;51.946;21.002;2022-07-04T02:13:12;4.60;4.60;3.40
50866;PMS7003;36839;51.946;21.002;2022-07-04T02:15:40;5.80;5.80;5.00
50866;PMS7003;36839;51.946;21.002;2022-07-04T02:18:08;6.20;5.80;4.20
50866;PMS7003;36839;51.946;21.002;2022-07-04T02:20:36;4.60;4.60;3.80
50866;PMS7003;36839;51.946;21.002;2022-07-04T02:23:03;4.60;4.00;4.00
50866;PMS7003;36839;51.946;21.002;2022-07-04T02:25:31;2.60;2.60;2.40
50866;PMS7003;36839;51.946;21.002;2022-07-04T02:27:58;7.00;5.00;4.00
50866;PMS7003;36839;51.946;21.002;2022-07-04T02:30:24;4.40;4.40;3.80
50866;PMS7003;36839;51.946;21.002;2022-07-04T02:32:51;4.40;4.20;4.00
50866;PMS7003;36839;51.946;21.002;2022-07-04T02:35:17;6.40;6.40;4.60
50866;PMS7003;36839;51.946;21.002;2022-07-04T02:37:43;5.20;5.20;4.20
50866;PMS7003;36839;51.946;21.002;2022-07-04T02:40:10;6.40;4.00;3.80
50866;PMS7003;36839;51.946;21.002;2022-07-04T02:42:36;5.00;4.40;3.00
50866;PMS7003;36839;51.946;21.002;2022-07-04T02:45:03;6.80;5.00;3.60
50866;PMS7003;36839;51.946;21.002;2022-07-04T02:47:31;4.00;4.00;3.60
50866;PMS7003;36839;51.946;21.002;2022-07-04T02:49:57;3.60;3.60;3.00
50866;PMS7003;36839;51.946;21.002;2022-07-04T02:52:24;6.60;4.00;3.40
50866;PMS7003;36839;51.946;21.002;2022-07-04T02:54:50;5.00;4.60;4.00
50866;PMS7003;36839;51.946;21.002;2022-07-04T02:57:18;4.00;4.00;4.00
50866;PMS7003;36839;51.946;21.002;2022-07-04T02:59:45;4.80;4.20;3.60
50866;PMS7003;36839;51.946;21.002;2022-07-04T03:02:11;4.00;4.00;3.40
50866;PMS7003;36839;51.946;21.002;2022-07-04T03:04:38;6.60;4.00;3.20
50866;PMS7003;36839;51.946;21.002;2022-07-04T03:07:06;4.80;3.40;2.80
50866;PMS7003;36839;51.946;21.002;2022-07-04T03:09:33;5.40;5.40;4.20
50866;PMS7003;36839;51.946;21.002;2022-07-04T03:12:03;8.00;5.25;5.00
50866;PMS7003;36839;51.946;21.002;2022-07-04T03:14:30;5.00;3.50;3.25
50866;PMS7003;36839;51.946;21.002;2022-07-04T03:16:56;4.00;4.00;4.00
50866;PMS7003;36839;51.946;21.002;2022-07-04T03:19:22;4.80;4.80;4.40
50866;PMS7003;36839;51.946;21.002;2022-07-04T03:21:48;7.40;6.80;5.80
50866;PMS7003;36839;51.946;21.002;2022-07-04T03:24:15;11.80;8.20;7.40
50866;PMS7003;36839;51.946;21.002;2022-07-04T03:26:41;10.20;9.00;7.80
50866;PMS7003;36839;51.946;21.002;2022-07-04T03:29:08;6.60;4.20;4.40
50866;PMS7003;36839;51.946;21.002;2022-07-04T03:31:34;4.00;4.00;4.00
50866;PMS7003;36839;51.946;21.002;2022-07-04T03:34:00;7.40;5.40;4.40
50866;PMS7003;36839;51.946;21.002;2022-07-04T03:36:26;6.40;5.00;4.40
50866;PMS7003;36839;51.946;21.002;2022-07-04T03:38:53;7.60;5.60;5.00
50866;PMS7003;36839;51.946;21.002;2022-07-04T03:41:19;8.40;7.20;5.60
50866;PMS7003;36839;51.946;21.002;2022-07-04T03:43:45;7.20;7.20;5.80
50866;PMS7003;36839;51.946;21.002;2022-07-04T03:46:11;7.20;7.00;6.40
50866;PMS7003;36839;51.946;21.002;2022-07-04T03:48:38;9.20;7.60;6.60
50866;PMS7003;36839;51.946;21.002;2022-07-04T03:51:04;7.00;7.00;6.00
50866;PMS7003;36839;51.946;21.002;2022-07-04T03:53:30;8.00;5.40;4.40
50866;PMS7003;36839;51.946;21.002;2022-07-04T03:55:57;7.20;7.20;5.80
50866;PMS7003;36839;51.946;21.002;2022-07-04T03:58:23;7.80;7.80;5.80
50866;PMS7003;36839;51.946;21.002;2022-07-04T04:00:49;8.80;8.20;6.60
50866;PMS7003;36839;51.946;21.002;2022-07-04T04:03:16;10.40;7.80;6.60
50866;PMS7003;36839;51.946;21.002;2022-07-04T04:06:00;10.00;10.00;8.40
50866;PMS7003;36839;51.946;21.002;2022-07-04T04:08:27;8.40;8.40;6.80
50866;PMS7003;36839;51.946;21.002;2022-07-04T04:10:55;8.40;7.40;5.20
50866;PMS7003;36839;51.946;21.002;2022-07-04T04:13:21;12.80;9.00;7.80
50866;PMS7003;36839;51.946;21.002;2022-07-04T04:15:48;9.20;9.20;7.40
50866;PMS7003;36839;51.946;21.002;2022-07-04T04:18:14;9.60;9.60;6.80
50866;PMS7003;36839;51.946;21.002;2022-07-04T04:20:40;11.60;9.40;7.80
50866;PMS7003;36839;51.946;21.002;2022-07-04T04:23:06;8.40;8.40;7.00
50866;PMS7003;36839;51.946;21.002;2022-07-04T04:25:33;16.00;14.00;10.20
50866;PMS7003;36839;51.946;21.002;2022-07-04T04:27:59;19.40;17.20;13.00
50866;PMS7003;36839;51.946;21.002;2022-07-04T04:30:25;13.60;13.60;10.20
50866;PMS7003;36839;51.946;21.002;2022-07-04T04:32:52;13.60;13.60;10.40
50866;PMS7003;36839;51.946;21.002;2022-07-04T04:35:18;14.80;14.60;10.80
50866;PMS7003;36839;51.946;21.002;2022-07-04T04:37:44;15.60;11.40;9.00
50866;PMS7003;36839;51.946;21.002;2022-07-04T04:40:11;17.60;13.40;10.20
50866;PMS7003;36839;51.946;21.002;2022-07-04T04:42:40;16.40;15.20;12.20
50866;PMS7003;36839;51.946;21.002;2022-07-04T04:45:07;20.00;18.20;14.00
50866;PMS7003;36839;51.946;21.002;2022-07-04T04:47:34;21.00;18.20;14.20
50866;PMS7003;36839;51.946;21.002;2022-07-04T04:50:00;16.40;15.60;11.20
50866;PMS7003;36839;51.946;21.002;2022-07-04T04:52:26;14.40;13.20;11.40
50866;PMS7003;36839;51.946;21.002;2022-07-04T04:54:53;22.80;18.40;14.20
50866;PMS7003;36839;51.946;21.002;2022-07-04T04:57:19;17.00;15.80;10.80
50866;PMS7003;36839;51.946;21.002;2022-07-04T04:59:45;15.80;15.80;11.00
50866;PMS7003;36839;51.946;21.002;2022-07-04T05:02:11;17.00;15.20;10.80
50866;PMS7003;36839;51.946;21.002;2022-07-04T05:04:38;17.20;16.60;11.60
50866;PMS7003;36839;51.946;21.002;2022-07-04T05:07:05;24.80;18.80;14.20
50866;PMS7003;36839;51.946;21.002;2022-07-04T05:09:31;18.00;16.60;10.80
50866;PMS7003;36839;51.946;21.002;2022-07-04T05:11:57;13.80;10.20;7.60
50866;PMS7003;36839;51.946;21.002;2022-07-04T05:14:24;17.00;15.20;12.00
50866;PMS7003;36839;51.946;21.002;2022-07-04T05:16:50;24.40;21.00;14.40
50866;PMS7003;36839;51.946;21.002;2022-07-04T05:19:16;25.20;21.20;16.00
50866;PMS7003;36839;51.946;21.002;2022-07-04T05:21:43;22.40;22.40;16.40
50866;PMS7003;36839;51.946;21.002;2022-07-04T05:24:09;22.00;18.20;12.20
50866;PMS7003;36839;51.946;21.002;2022-07-04T05:26:36;17.80;17.80;11.80
50866;PMS7003;36839;51.946;21.002;2022-07-04T05:29:03;19.60;17.80;13.20
50866;PMS7003;36839;51.946;21.002;2022-07-04T05:31:29;20.40;17.80;15.00
50866;PMS7003;36839;51.946;21.002;2022-07-04T05:33:57;18.00;18.00;12.25
50866;PMS7003;36839;51.946;21.002;2022-07-04T05:36:24;24.80;22.80;15.00
50866;PMS7003;36839;51.946;21.002;2022-07-04T05:38:51;21.20;16.80;10.80
50866;PMS7003;36839;51.946;21.002;2022-07-04T05:41:18;18.20;16.00;11.80
50866;PMS7003;36839;51.946;21.002;2022-07-04T05:43:44;28.40;22.80;15.00
50866;PMS7003;36839;51.946;21.002;2022-07-04T05:46:10;26.00;21.40;14.00
50866;PMS7003;36839;51.946;21.002;2022-07-04T05:48:37;18.20;16.60;12.40
50866;PMS7003;36839;51.946;21.002;2022-07-04T05:51:04;29.00;24.20;16.20
50866;PMS7003;36839;51.946;21.002;2022-07-04T05:53:31;23.60;21.20;15.40
50866;PMS7003;36839;51.946;21.002;2022-07-04T05:55:58;21.40;19.60;15.60
50866;PMS7003;36839;51.946;21.002;2022-07-04T05:58:24;17.60;15.60;12.00
50866;PMS7003;36839;51.946;21.002;2022-07-04T06:00:50;23.20;21.00;15.20
50866;PMS7003;36839;51.946;21.002;2022-07-04T06:03:17;21.40;18.80;14.40
50866;PMS7003;36839;51.946;21.002;2022-07-04T06:05:43;18.00;16.40;13.00
50866;PMS7003;36839;51.946;21.002;2022-07-04T06:08:09;19.80;19.60;14.60
50866;PMS7003;36839;51.946;21.002;2022-07-04T06:10:36;0.00;0.00;0.00
50866;PMS7003;36839;51.946;21.002;2022-07-04T06:13:02;3.00;3.00;3.00
50866;PMS7003;36839;51.946;21.002;2022-07-04T06:15:28;0.00;0.00;0.00
50866;PMS7003;36839;51.946;21.002;2022-07-04T06:17:55;0.00;0.00;0.00
50866;PMS7003;36839;51.946;21.002;2022-07-04T06:20:21;0.00;0.00;0.00
50866;PMS7003;36839;51.946;21.002;2022-07-04T06:22:48;0.00;0.00;0.00
50866;PMS7003;36839;51.946;21.002;2022-07-04T06:25:15;0.00;0.00;0.00
50866;PMS7003;36839;51.946;21.002;2022-07-04T06:27:43;0.00;0.00;0.00
50866;PMS7003;36839;51.946;21.002;2022-07-04T06:30:11;0.00;0.00;0.00
50866;PMS7003;36839;51.946;21.002;2022-07-04T06:32:46;0.00;0.00;0.00
50866;PMS7003;36839;51.946;21.002;2022-07-04T06:35:17;0.00;0.00;0.00
50866;PMS7003;36839;51.946;21.002;2022-07-04T06:38:03;0.00;0.00;0.00
50866;PMS7003;36839;51.946;21.002;2022-07-04T06:40:29;0.00;0.00;0.00
50866;PMS7003;36839;51.946;21.002;2022-07-04T06:42:56;0.00;0.00;0.00
50866;PMS7003;36839;51.946;21.002;2022-07-04T06:45:22;0.00;0.00;0.00
50866;PMS7003;36839;51.946;21.002;2022-07-04T06:47:48;0.00;0.00;0.00
50866;PMS7003;36839;51.946;21.002;2022-07-04T06:50:15;0.00;0.00;0.00
50866;PMS7003;36839;51.946;21.002;2022-07-04T06:52:43;0.00;0.00;0.00
50866;PMS7003;36839;51.946;21.002;2022-07-04T06:55:10;0.00;0.00;0.00
50866;PMS7003;36839;51.946;21.002;2022-07-04T06:57:36;0.00;0.00;0.00
50866;PMS7003;36839;51.946;21.002;2022-07-04T07:00:07;0.00;0.00;0.00
50866;PMS7003;36839;51.946;21.002;2022-07-04T07:02:35;0.00;0.00;0.00
50866;PMS7003;36839;51.946;21.002;2022-07-04T07:05:02;0.00;0.00;0.00
50866;PMS7003;36839;51.946;21.002;2022-07-04T07:07:29;0.00;0.00;0.00
50866;PMS7003;36839;51.946;21.002;2022-07-04T07:09:56;0.00;0.00;0.00
50866;PMS7003;36839;51.946;21.002;2022-07-04T07:12:23;0.00;0.00;0.00
50866;PMS7003;36839;51.946;21.002;2022-07-04T07:14:49;0.00;0.00;0.00
50866;PMS7003;36839;51.946;21.002;2022-07-04T07:17:17;0.00;0.00;0.00
50866;PMS7003;36839;51.946;21.002;2022-07-04T07:19:43;0.00;0.00;0.00
50866;PMS7003;36839;51.946;21.002;2022-07-04T07:22:11;0.00;0.00;0.00
50866;PMS7003;36839;51.946;21.002;2022-07-04T07:24:38;1.00;1.00;1.00
50866;PMS7003;36839;51.946;21.002;2022-07-04T07:27:05;0.00;0.00;0.00
50866;PMS7003;36839;51.946;21.002;2022-07-04T07:29:32;0.00;0.00;0.00
50866;PMS7003;36839;51.946;21.002;2022-07-04T07:31:58;0.00;0.00;0.00
50866;PMS7003;36839;51.946;21.002;2022-07-04T07:34:24;0.00;0.00;0.00
50866;PMS7003;36839;51.946;21.002;2022-07-04T07:36:51;0.00;0.00;0.00
50866;PMS7003;36839;51.946;21.002;2022-07-04T07:39:18;0.00;0.00;0.00
50866;PMS7003;36839;51.946;21.002;2022-07-04T07:41:44;0.00;0.00;0.00
50866;PMS7003;36839;51.946;21.002;2022-07-04T07:44:10;0.00;0.00;0.00
50866;PMS7003;36839;51.946;21.002;2022-07-04T07:46:36;0.00;0.00;0.00
50866;PMS7003;36839;51.946;21.002;2022-07-04T07:49:03;0.00;0.00;0.00
50866;PMS7003;36839;51.946;21.002;2022-07-04T07:51:29;0.00;0.00;0.00
50866;PMS7003;36839;51.946;21.002;2022-07-04T07:53:56;8.25;6.25;5.50
50866;PMS7003;36839;51.946;21.002;2022-07-04T07:56:22;8.25;8.25;6.75
50866;PMS7003;36839;51.946;21.002;2022-07-04T07:58:49;13.40;11.00;8.20
50866;PMS7003;36839;51.946;21.002;2022-07-04T08:01:15;12.80;10.00;8.20
50866;PMS7003;36839;51.946;21.002;2022-07-04T08:03:42;10.80;10.80;8.20
50866;PMS7003;36839;51.946;21.002;2022-07-04T08:06:27;9.20;8.20;6.00
50866;PMS7003;36839;51.946;21.002;2022-07-04T08:08:53;10.00;7.20;6.20
50866;PMS7003;36839;51.946;21.002;2022-07-04T08:11:19;9.40;9.40;7.60
50866;PMS7003;36839;51.946;21.002;2022-07-04T08:13:46;9.20;8.60;7.40
50866;PMS7003;36839;51.946;21.002;2022-07-04T08:16:12;8.20;8.20;7.20
50866;PMS7003;36839;51.946;21.002;2022-07-04T08:18:39;8.80;8.20;6.40
50866;PMS7003;36839;51.946;21.002;2022-07-04T08:21:05;9.60;8.60;7.00
50866;PMS7003;36839;51.946;21.002;2022-07-04T08:23:32;10.60;9.60;7.60
50866;PMS7003;36839;51.946;21.002;2022-07-04T08:25:59;9.80;7.40;6.60
50866;PMS7003;36839;51.946;21.002;2022-07-04T08:28:26;7.80;7.80;7.20
50866;PMS7003;36839;51.946;21.002;2022-07-04T08:30:53;7.80;7.80;6.20
50866;PMS7003;36839;51.946;21.002;2022-07-04T08:33:20;8.40;8.40;7.60
50866;PMS7003;36839;51.946;21.002;2022-07-04T08:35:46;11.40;10.00;8.20
50866;PMS7003;36839;51.946;21.002;2022-07-04T08:38:13;8.40;8.40;7.40
50866;PMS7003;36839;51.946;21.002;2022-07-04T08:40:41;8.40;8.40;7.40
50866;PMS7003;36839;51.946;21.002;2022-07-04T08:43:07;10.40;8.60;7.20
50866;PMS7003;36839;51.946;21.002;2022-07-04T08:45:37;8.60;7.40;6.20
50866;PMS7003;36839;51.946;21.002;2022-07-04T08:48:04;7.00;7.00;6.00
50866;PMS7003;36839;51.946;21.002;2022-07-04T08:50:43;8.60;7.40;6.40
50866;PMS7003;36839;51.946;21.002;2022-07-04T08:53:13;10.00;7.20;6.20
50866;PMS7003;36839;51.946;21.002;2022-07-04T08:55:42;8.20;7.20;5.00
50866;PMS7003;36839;51.946;21.002;2022-07-04T08:58:27;9.00;7.60;6.20
50866;PMS7003;36839;51.946;21.002;2022-07-04T09:01:01;10.20;7.60;6.40
50866;PMS7003;36839;51.946;21.002;2022-07-04T09:03:29;8.20;8.20;6.40
50866;PMS7003;36839;51.946;21.002;2022-07-04T09:05:57;6.20;6.20;5.80
50866;PMS7003;36839;51.946;21.002;2022-07-04T09:08:24;10.60;9.80;7.40
50866;PMS7003;36839;51.946;21.002;2022-07-04T09:10:51;7.40;7.40;6.20
50866;PMS7003;36839;51.946;21.002;2022-07-04T09:13:19;8.20;8.20;6.40
50866;PMS7003;36839;51.946;21.002;2022-07-04T09:15:47;9.20;7.80;7.00
50866;PMS7003;36839;51.946;21.002;2022-07-04T09:18:19;10.80;8.20;7.00
50866;PMS7003;36839;51.946;21.002;2022-07-04T09:20:53;6.80;6.80;6.00
50866;PMS7003;36839;51.946;21.002;2022-07-04T09:23:21;7.60;7.40;6.80
50866;PMS7003;36839;51.946;21.002;2022-07-04T09:26:05;9.40;9.40;7.20
50866;PMS7003;36839;51.946;21.002;2022-07-04T09:28:28;7.40;7.40;6.00
50866;PMS7003;36839;51.946;21.002;2022-07-04T09:30:55;5.75;5.75;5.25
50866;PMS7003;36839;51.946;21.002;2022-07-04T09:33:21;8.20;7.80;6.20
50866;PMS7003;36839;51.946;21.002;2022-07-04T09:35:48;9.60;8.60;7.40
50866;PMS7003;36839;51.946;21.002;2022-07-04T09:38:21;9.40;8.00;6.40
50866;PMS7003;36839;51.946;21.002;2022-07-04T09:40:51;8.20;8.20;7.40
50866;PMS7003;36839;51.946;21.002;2022-07-04T09:43:36;6.80;6.80;5.60
50866;PMS7003;36839;51.946;21.002;2022-07-04T09:46:02;7.60;7.60;5.60
50866;PMS7003;36839;51.946;21.002;2022-07-04T09:48:47;8.60;8.60;7.00
50866;PMS7003;36839;51.946;21.002;2022-07-04T09:51:15;9.40;8.20;6.60
50866;PMS7003;36839;51.946;21.002;2022-07-04T09:53:43;8.40;8.40;7.00
50866;PMS7003;36839;51.946;21.002;2022-07-04T09:56:09;6.40;6.40;5.20
50866;PMS7003;36839;51.946;21.002;2022-07-04T09:58:35;9.20;8.80;7.40
50866;PMS7003;36839;51.946;21.002;2022-07-04T10:01:02;7.40;7.40;6.60
50866;PMS7003;36839;51.946;21.002;2022-07-04T10:03:28;7.80;7.80;6.20
50866;PMS7003;36839;51.946;21.002;2022-07-04T10:06:08;8.40;8.00;6.40
50866;PMS7003;36839;51.946;21.002;2022-07-04T10:08:43;11.20;8.60;7.00
50866;PMS7003;36839;51.946;21.002;2022-07-04T10:11:10;9.40;8.20;6.60
50866;PMS7003;36839;51.946;21.002;2022-07-04T10:13:37;11.00;9.40;7.00
50866;PMS7003;36839;51.946;21.002;2022-07-04T10:16:04;8.00;8.00;6.00
50866;PMS7003;36839;51.946;21.002;2022-07-04T10:18:33;9.60;9.60;8.20
50866;PMS7003;36839;51.946;21.002;2022-07-04T10:21:00;8.80;8.80;8.20
50866;PMS7003;36839;51.946;21.002;2022-07-04T10:23:26;3.25;3.25;3.25
50866;PMS7003;36839;51.946;21.002;2022-07-04T10:25:54;7.60;7.60;6.20
50866;PMS7003;36839;51.946;21.002;2022-07-04T10:28:21;12.20;9.80;7.60
50866;PMS7003;36839;51.946;21.002;2022-07-04T10:30:51;9.00;9.00;8.00
50866;PMS7003;36839;51.946;21.002;2022-07-04T10:33:27;8.00;8.00;6.00
50866;PMS7003;36839;51.946;21.002;2022-07-04T10:38:31;9.50;9.50;8.00
50866;PMS7003;36839;51.946;21.002;2022-07-04T10:40:56;9.00;9.00;7.40
50866;PMS7003;36839;51.946;21.002;2022-07-04T10:48:32;6.50;6.50;5.50
50866;PMS7003;36839;51.946;21.002;2022-07-04T10:51:04;10.60;10.20;8.60
50866;PMS7003;36839;51.946;21.002;2022-07-04T10:53:28;8.00;8.00;7.00
50866;PMS7003;36839;51.946;21.002;2022-07-04T10:58:47;9.60;8.80;7.00
50866;PMS7003;36839;51.946;21.002;2022-07-04T11:01:16;6.60;6.60;5.00
50866;PMS7003;36839;51.946;21.002;2022-07-04T11:03:48;12.80;10.00;8.00
50866;PMS7003;36839;51.946;21.002;2022-07-04T11:09:21;9.80;8.00;6.40
50866;PMS7003;36839;51.946;21.002;2022-07-04T11:14:39;11.00;7.60;6.40
50866;PMS7003;36839;51.946;21.002;2022-07-04T11:17:08;9.40;8.40;7.00
50866;PMS7003;36839;51.946;21.002;2022-07-04T11:19:36;8.40;7.00;6.00
50866;PMS7003;36839;51.946;21.002;2022-07-04T11:22:03;10.60;9.40;7.40
50866;PMS7003;36839;51.946;21.002;2022-07-04T11:24:31;7.60;7.60;6.80
50866;PMS7003;36839;51.946;21.002;2022-07-04T11:26:59;8.60;8.60;7.80
50866;PMS7003;36839;51.946;21.002;2022-07-04T11:29:26;8.00;8.00;6.60
50866;PMS7003;36839;51.946;21.002;2022-07-04T11:31:53;9.80;9.80;8.00
50866;PMS7003;36839;51.946;21.002;2022-07-04T11:34:20;7.80;7.80;7.20
50866;PMS7003;36839;51.946;21.002;2022-07-04T11:36:47;9.60;8.40;7.00
50866;PMS7003;36839;51.946;21.002;2022-07-04T11:39:15;10.80;9.20;8.00
50866;PMS7003;36839;51.946;21.002;2022-07-04T11:41:50;6.60;6.60;5.40
50866;PMS7003;36839;51.946;21.002;2022-07-04T11:44:36;7.40;7.40;6.40
50866;PMS7003;36839;51.946;21.002;2022-07-04T11:47:23;9.40;7.80;6.80
50866;PMS7003;36839;51.946;21.002;2022-07-04T11:50:05;7.00;7.00;5.80
50866;PMS7003;36839;51.946;21.002;2022-07-04T11:55:09;8.00;8.00;7.00
50866;PMS7003;36839;51.946;21.002;2022-07-04T11:57:39;8.80;7.20;6.20
50866;PMS7003;36839;51.946;21.002;2022-07-04T12:02:39;8.25;6.75;5.75
50866;PMS7003;36839;51.946;21.002;2022-07-04T12:05:08;5.80;5.80;4.80
50866;PMS7003;36839;51.946;21.002;2022-07-04T12:07:36;9.40;9.40;7.20
50866;PMS7003;36839;51.946;21.002;2022-07-04T12:10:07;9.80;8.80;7.00
50866;PMS7003;36839;51.946;21.002;2022-07-04T12:12:54;9.60;8.60;7.20
50866;PMS7003;36839;51.946;21.002;2022-07-04T12:15:22;9.20;7.00;6.20
50866;PMS7003;36839;51.946;21.002;2022-07-04T12:17:51;12.00;9.75;8.25
50866;PMS7003;36839;51.946;21.002;2022-07-04T12:20:20;9.40;9.40;7.40
50866;PMS7003;36839;51.946;21.002;2022-07-04T12:22:52;10.20;8.00;7.00
50866;PMS7003;36839;51.946;21.002;2022-07-04T12:25:27;8.60;8.00;7.00
50866;PMS7003;36839;51.946;21.002;2022-07-04T12:27:59;9.40;9.40;8.40
50866;PMS7003;36839;51.946;21.002;2022-07-04T12:30:28;9.80;9.80;8.00
50866;PMS7003;36839;51.946;21.002;2022-07-04T12:32:58;7.20;7.20;6.40
50866;PMS7003;36839;51.946;21.002;2022-07-04T12:38:20;8.00;8.00;6.80
50866;PMS7003;36839;51.946;21.002;2022-07-04T12:40:56;7.80;7.80;7.00
50866;PMS7003;36839;51.946;21.002;2022-07-04T12:46:13;8.00;7.20;6.20
50866;PMS7003;36839;51.946;21.002;2022-07-04T12:48:42;8.60;8.60;7.40
50866;PMS7003;36839;51.946;21.002;2022-07-04T12:51:12;7.20;7.20;6.20
50866;PMS7003;36839;51.946;21.002;2022-07-04T12:53:48;8.60;7.80;7.20
50866;PMS7003;36839;51.946;21.002;2022-07-04T12:56:35;10.60;9.40;8.00
50866;PMS7003;36839;51.946;21.002;2022-07-04T13:01:37;8.20;8.20;7.00
50866;PMS7003;36839;51.946;21.002;2022-07-04T13:04:04;9.60;7.80;6.60
50866;PMS7003;36839;51.946;21.002;2022-07-04T13:06:31;10.60;9.80;7.60
50866;PMS7003;36839;51.946;21.002;2022-07-04T13:08:57;8.00;8.00;7.00
50866;PMS7003;36839;51.946;21.002;2022-07-04T13:11:24;8.00;8.00;6.80
50866;PMS7003;36839;51.946;21.002;2022-07-04T13:14:09;10.40;10.40;8.00
50866;PMS7003;36839;51.946;21.002;2022-07-04T13:16:35;8.00;8.00;6.20
50866;PMS7003;36839;51.946;21.002;2022-07-04T13:19:02;8.40;8.40;7.20
50866;PMS7003;36839;51.946;21.002;2022-07-04T13:21:28;9.40;9.40;7.80
50866;PMS7003;36839;51.946;21.002;2022-07-04T13:23:55;7.00;7.00;6.00
50866;PMS7003;36839;51.946;21.002;2022-07-04T13:26:21;8.00;8.00;7.00
50866;PMS7003;36839;51.946;21.002;2022-07-04T13:28:47;8.20;8.20;7.20
50866;PMS7003;36839;51.946;21.002;2022-07-04T13:31:14;9.20;9.20;7.40
50866;PMS7003;36839;51.946;21.002;2022-07-04T13:33:40;9.60;9.60;8.80
50866;PMS7003;36839;51.946;21.002;2022-07-04T13:36:07;8.40;8.40;7.20
50866;PMS7003;36839;51.946;21.002;2022-07-04T13:38:33;12.00;9.60;8.00
50866;PMS7003;36839;51.946;21.002;2022-07-04T13:40:59;8.80;8.80;7.00
50866;PMS7003;36839;51.946;21.002;2022-07-04T13:43:26;8.40;8.40;7.80
50866;PMS7003;36839;51.946;21.002;2022-07-04T13:45:54;8.80;7.60;6.20
50866;PMS7003;36839;51.946;21.002;2022-07-04T13:48:22;9.00;9.00;7.20
50866;PMS7003;36839;51.946;21.002;2022-07-04T13:50:50;10.40;10.40;9.20
50866;PMS7003;36839;51.946;21.002;2022-07-04T13:53:16;9.60;8.20;7.00
50866;PMS7003;36839;51.946;21.002;2022-07-04T13:55:42;8.80;8.80;7.40
50866;PMS7003;36839;51.946;21.002;2022-07-04T13:58:10;10.20;9.20;7.80
50866;PMS7003;36839;51.946;21.002;2022-07-04T14:00:37;9.00;9.00;8.00
50866;PMS7003;36839;51.946;21.002;2022-07-04T14:03:06;7.00;7.00;6.00
50866;PMS7003;36839;51.946;21.002;2022-07-04T14:05:33;10.00;9.20;7.00
50866;PMS7003;36839;51.946;21.002;2022-07-04T14:07:59;9.20;9.20;7.40
50866;PMS7003;36839;51.946;21.002;2022-07-04T14:10:25;7.60;7.40;6.40
50866;PMS7003;36839;51.946;21.002;2022-07-04T14:12:52;10.60;9.80;8.60
50866;PMS7003;36839;51.946;21.002;2022-07-04T14:15:18;9.00;7.80;6.80
50866;PMS7003;36839;51.946;21.002;2022-07-04T14:17:45;11.00;9.80;7.20
50866;PMS7003;36839;51.946;21.002;2022-07-04T14:20:12;7.80;7.80;6.20
50866;PMS7003;36839;51.946;21.002;2022-07-04T14:22:38;9.60;9.60;8.60
50866;PMS7003;36839;51.946;21.002;2022-07-04T14:25:05;8.60;8.60;7.40
50866;PMS7003;36839;51.946;21.002;2022-07-04T14:27:33;9.00;9.00;7.40
50866;PMS7003;36839;51.946;21.002;2022-07-04T14:29:59;10.00;9.00;7.60
50866;PMS7003;36839;51.946;21.002;2022-07-04T14:32:26;9.40;9.40;7.60
50866;PMS7003;36839;51.946;21.002;2022-07-04T14:34:52;12.40;12.20;9.40
50866;PMS7003;36839;51.946;21.002;2022-07-04T14:37:19;9.00;8.60;8.20